Home > Products > Valid Products > MTR

000
SAUS41 KBOX 281655
MTRMQE
METAR KMQE 281654Z AUTO 33005KT M06/M18 A3067 RMK AO1 SLP409
T10561183





000
SAUS41 KBOX 281555
MTRMQE
METAR KMQE 281554Z AUTO VRB05KT M07/M18 A3068 RMK AO1 SLP412
T10671183





000
SAUS41 KBOX 281455
MTRMQE
METAR KMQE 281454Z AUTO 33007KT M08/M19 A3068 RMK AO1 SLP413
T10831189 51016





000
SAUS41 KBOX 281355
MTRMQE
METAR KMQE 281354Z AUTO 32010KT M11/M18 A3067 RMK AO1 SLP411
T11111183





000
SAUS41 KBOX 281355
MTRMQE
METAR KMQE 281354Z AUTO 32010KT M11/M18 A3067 RMK AO1 SLP411
T11111183





000
SAUS41 KBOX 281255
MTRMQE
METAR KMQE 281254Z AUTO 31011KT M13/M19 A3065 RMK AO1 SLP403
T11331194





000
SAUS41 KBOX 281255
MTRMQE
METAR KMQE 281254Z AUTO 31011KT M13/M19 A3065 RMK AO1 SLP403
T11331194





000
SAUS41 KBOX 281155
MTRMQE
METAR KMQE 281154Z AUTO 30010KT M15/M19 A3063 RMK AO1 SLP398
T11501194 11122 21150 53029





000
SAUS41 KBOX 281155
MTRMQE
METAR KMQE 281154Z AUTO 30010KT M15/M19 A3063 RMK AO1 SLP398
T11501194 11122 21150 53029





000
SAUS41 KBOX 281055
MTRMQE
METAR KMQE 281054Z AUTO 30010KT M14/M19 A3060 RMK AO1 SLP388
T11441194





000
SAUS41 KBOX 281055
MTRMQE
METAR KMQE 281054Z AUTO 30010KT M14/M19 A3060 RMK AO1 SLP388
T11441194





000
SAUS41 KBOX 280955
MTRMQE
METAR KMQE 280954Z AUTO 31012KT M14/M19 A3057 RMK AO1 SLP376
T11391194





000
SAUS41 KBOX 280855
MTRMQE
METAR KMQE 280854Z AUTO 31011G17KT M14/M19 A3054 RMK AO1 SLP367
T11391194 51018





000
SAUS41 KBOX 280755
MTRMQE
METAR KMQE 280754Z AUTO 31013KT M13/M19 A3053 RMK AO1 SLP360
T11281189





000
SAUS41 KBOX 280655
MTRMQE
METAR KMQE 280654Z AUTO 30011KT M13/M19 A3052 RMK AO1 SLP359
T11281189





000
SAUS41 KBOX 280655
MTRMQE
METAR KMQE 280654Z AUTO 30011KT M13/M19 A3052 RMK AO1 SLP359
T11281189





000
SAUS41 KBOX 280555
MTRMQE
METAR KMQE 280554Z AUTO 31010KT M12/M19 A3049 RMK AO1 SLP349
T11221194 11067 21128 51016





000
SAUS41 KBOX 280555
MTRMQE
METAR KMQE 280554Z AUTO 31010KT M12/M19 A3049 RMK AO1 SLP349
T11221194 11067 21128 51016





000
SAUS41 KBOX 280456
MTRMQE
METAR KMQE 280454Z AUTO 31012KT M11/M19 A3048 RMK AO1 SLP345
T11111194 410441128





000
SAUS41 KBOX 280456
MTRMQE
METAR KMQE 280454Z AUTO 31012KT M11/M19 A3048 RMK AO1 SLP345
T11111194 410441128





000
SAUS41 KBOX 280355
MTRMQE
METAR KMQE 280354Z AUTO 31012KT M11/M20 A3046 RMK AO1 SLP337
T11061200





000
SAUS41 KBOX 280355
MTRMQE
METAR KMQE 280354Z AUTO 31012KT M11/M20 A3046 RMK AO1 SLP337
T11061200





000
SAUS41 KBOX 280255
MTRMQE
METAR KMQE 280254Z AUTO 32009KT M10/M19 A3044 RMK AO1 SLP332
T11001194 53023





000
SAUS41 KBOX 280255
MTRMQE
METAR KMQE 280254Z AUTO 32009KT M10/M19 A3044 RMK AO1 SLP332
T11001194 53023





000
SAUS41 KBOX 280155
MTRMQE
METAR KMQE 280154Z AUTO 31010KT M09/M19 A3041 RMK AO1 SLP322
T10891194





000
SAUS41 KBOX 280155
MTRMQE
METAR KMQE 280154Z AUTO 31010KT M09/M19 A3041 RMK AO1 SLP322
T10891194





000
SAUS41 KBOX 280055
MTRMQE
METAR KMQE 280054Z AUTO 26004KT M07/M20 A3039 RMK AO1 SLP313
T10671200





000
SAUS41 KBOX 280055
MTRMQE
METAR KMQE 280054Z AUTO 26004KT M07/M20 A3039 RMK AO1 SLP313
T10671200





000
SAUS41 KBOX 272355
MTRMQE
METAR KMQE 272354Z AUTO 31006KT M07/M21 A3037 RMK AO1 SLP308
T10721211 11044 21072 53024





000
SAUS41 KBOX 272355
MTRMQE
METAR KMQE 272354Z AUTO 31006KT M07/M21 A3037 RMK AO1 SLP308
T10721211 11044 21072 53024





000
SAUS41 KBOX 272255
MTRMQE
METAR KMQE 272254Z AUTO 30006KT M07/M19 A3035 RMK AO1 SLP299
T10721194





000
SAUS41 KBOX 272255
MTRMQE
METAR KMQE 272254Z AUTO 30006KT M07/M19 A3035 RMK AO1 SLP299
T10721194





000
SAUS41 KBOX 272155
MTRMQE
METAR KMQE 272154Z AUTO 28009KT M06/M19 A3032 RMK AO1 SLP289
T10561194





000
SAUS41 KBOX 272155
MTRMQE
METAR KMQE 272154Z AUTO 28009KT M06/M19 A3032 RMK AO1 SLP289
T10561194





000
SAUS41 KBOX 272055
MTRMQE
METAR KMQE 272054Z AUTO 26007KT M04/M19 A3030 RMK AO1 SLP282
T10441189 53009





000
SAUS41 KBOX 272055
MTRMQE
METAR KMQE 272054Z AUTO 26007KT M04/M19 A3030 RMK AO1 SLP282
T10441189 53009





000
SAUS41 KBOX 271955
MTRMQE
METAR KMQE 271954Z AUTO 25004KT M05/M19 A3028 RMK AO1 SLP277
T10501189





000
SAUS41 KBOX 271855
MTRMQE
METAR KMQE 271854Z AUTO 30007KT M05/M18 A3027 RMK AO1 SLP273
T10501183





000
SAUS41 KBOX 271855
MTRMQE
METAR KMQE 271854Z AUTO 30007KT M05/M18 A3027 RMK AO1 SLP273
T10501183





000
SAUS41 KBOX 271755
MTRMQE
METAR KMQE 271754Z AUTO 30008KT M06/M19 A3027 RMK AO1 SLP273
T10611194 11056 21128 58002





000
SAUS41 KBOX 271755
MTRMQE
METAR KMQE 271754Z AUTO 30008KT M06/M19 A3027 RMK AO1 SLP273
T10611194 11056 21128 58002





000
SAUS41 KBOX 271655
MTRMQE
METAR KMQE 271654Z AUTO 32009KT M07/M21 A3028 RMK AO1 SLP275
T10671206





000
SAUS41 KBOX 271655
MTRMQE
METAR KMQE 271654Z AUTO 32009KT M07/M21 A3028 RMK AO1 SLP275
T10671206





000
SAUS41 KBOX 271555
MTRMQE
METAR KMQE 271554Z AUTO 33008KT M07/M21 A3028 RMK AO1 SLP275
T10721206





000
SAUS41 KBOX 271455
MTRMQE
METAR KMQE 271454Z AUTO 31005KT M08/M21 A3028 RMK AO1 SLP275
T10831206 51023





000
SAUS41 KBOX 271455
MTRMQE
METAR KMQE 271454Z AUTO 31005KT M08/M21 A3028 RMK AO1 SLP275
T10831206 51023





000
SAUS41 KBOX 271355
MTRMQE
METAR KMQE 271354Z AUTO 31010KT M09/M20 A3027 RMK AO1 SLP273
T10941200





000
SAUS41 KBOX 271355
MTRMQE
METAR KMQE 271354Z AUTO 31010KT M09/M20 A3027 RMK AO1 SLP273
T10941200





000
SAUS41 KBOX 271255
MTRMQE
METAR KMQE 271254Z AUTO 32011KT M12/M19 A3025 RMK AO1 SLP268
T11171194





000
SAUS41 KBOX 271155
MTRMQE
METAR KMQE 271154Z AUTO 33011KT M12/M19 A3021 RMK AO1 SLP252 70006
T11221189 11094 21128 51025





000
SAUS41 KBOX 271055
MTRMQE
METAR KMQE 271054Z AUTO 32010KT M12/M18 A3020 RMK AO1 SLP248
T11221183





000
SAUS41 KBOX 270955
MTRMQE
METAR KMQE 270954Z AUTO 32009KT M12/M18 A3017 RMK AO1 SLP238
T11221183





000
SAUS41 KBOX 270855
MTRMQE
METAR KMQE 270854Z AUTO 33010KT M11/M19 A3013 RMK AO1 SLP226
T11111189 53018





000
SAUS41 KBOX 270755
MTRMQE
METAR KMQE 270754Z AUTO 32010KT M11/M18 A3011 RMK AO1 SLP220
T11061183





000
SAUS41 KBOX 270655
MTRMQE
METAR KMQE 270654Z AUTO 34009KT M09/M18 A3008 RMK AO1 SLP208
T10941178





000
SAUS41 KBOX 270555
MTRMQE
METAR KMQE 270554Z AUTO 32008KT M11/M14 A3008 RMK AO1 SLP207
T11061139 11078 21106 53009





000
SAUS41 KBOX 270455
MTRMQE
METAR KMQE 270454Z AUTO 33004KT M09/M13 A3005 RMK AO1 SLP199
T10891128 410671094





000
SAUS41 KBOX 270455
MTRMQE
METAR KMQE 270454Z AUTO 33004KT M09/M13 A3005 RMK AO1 SLP199
T10891128 410671094





000
SAUS41 KBOX 270355
MTRMQE
METAR KMQE 270354Z AUTO 34005KT M08/M13 A3005 RMK AO1 SLP197
T10831133





000
SAUS41 KBOX 270255
MTRMQE
METAR KMQE 270254Z AUTO 28003KT M08/M13 A3005 RMK AO1 SLP197
T10831133 53027





000
SAUS41 KBOX 270155
MTRMQE
METAR KMQE 270154Z AUTO 34005KT M09/M13 A3001 RMK AO1 SLP185
T10891128





000
SAUS41 KBOX 270055
MTRMQE
METAR KMQE 270054Z AUTO 01004KT M08/M13 A2998 RMK AO1 SLP175
T10831128





000
SAUS41 KBOX 262355
MTRMQE
METAR KMQE 262354Z AUTO 02006KT M08/M13 A2997 RMK AO1 SLP169 60002
T10781128 11067 21089 53015





000
SAUS41 KBOX 262355
MTRMQE
METAR KMQE 262354Z AUTO 02006KT M08/M13 A2997 RMK AO1 SLP169 60002
T10781128 11067 21089 53015





000
SAUS41 KBOX 262255
MTRMQE
METAR KMQE 262254Z AUTO 02005KT M08/M13 A2994 RMK AO1 SLP162
T10831128





000
SAUS41 KBOX 262155
MTRMQE
METAR KMQE 262154Z AUTO 02007KT M07/M12 A2994 RMK AO1 SLP160
T10721122





000
SAUS41 KBOX 262155
MTRMQE
METAR KMQE 262154Z AUTO 02007KT M07/M12 A2994 RMK AO1 SLP160
T10721122





000
SAUS41 KBOX 261955
MTRMQE
METAR KMQE 261954Z AUTO 02010G18KT M07/M11 A2990 RMK AO1 SLP147
T10721106





000
SAUS41 KBOX 261855
MTRMQE
METAR KMQE 261854Z AUTO 01008G18KT M07/M09 A2990 RMK AO1 SLP148
P0002 T10671089





000
SAUS41 KBOX 261755
MTRMQE
METAR KMQE 261754Z AUTO 35005KT M08/M10 A2993 RMK AO1 SLP157 P0002
60004 T10781100 11078 21094 58024





000
SAUS41 KBOX 261655
MTRMQE
METAR KMQE 261654Z AUTO 34007KT M08/M10 A2997 RMK AO1 SLP170 P0002
T10781100





000
SAUS41 KBOX 261655
MTRMQE
METAR KMQE 261654Z AUTO 34007KT M08/M10 A2997 RMK AO1 SLP170 P0002
T10781100





000
SAUS41 KBOX 261455
MTRMQE
METAR KMQE 261454Z AUTO 36008KT M08/M16 A3000 RMK AO1 SLP182
T10831156 50001





000
SAUS41 KBOX 261255
MTRMQE
METAR KMQE 261254Z AUTO 01007G16KT M09/M17 A3002 RMK AO1 SLP185
T10941167





000
SAUS41 KBOX 261155
MTRMQE
METAR KMQE 261154Z AUTO 03009G14KT M09/M16 A3000 RMK AO1 SLP180
T10941161 11083 21094 51007





000
SAUS41 KBOX 261155
MTRMQE
METAR KMQE 261154Z AUTO 03009G14KT M09/M16 A3000 RMK AO1 SLP180
T10941161 11083 21094 51007





000
SAUS41 KBOX 261055
MTRMQE
METAR KMQE 261054Z AUTO 36009KT M09/M16 A2999 RMK AO1 SLP177
T10941161





000
SAUS41 KBOX 261055
MTRMQE
METAR KMQE 261054Z AUTO 36009KT M09/M16 A2999 RMK AO1 SLP177
T10941161





000
SAUS41 KBOX 260955
MTRMQE
METAR KMQE 260954Z AUTO 35008KT M09/M16 A2999 RMK AO1 SLP175
T10941161





000
SAUS41 KBOX 260855
MTRMQE
METAR KMQE 260854Z AUTO 34010G16KT M09/M16 A2998 RMK AO1 SLP172
T10891161 53002





000
SAUS41 KBOX 260855
MTRMQE
METAR KMQE 260854Z AUTO 34010G16KT M09/M16 A2998 RMK AO1 SLP172
T10891161 53002





000
SAUS41 KBOX 260755
MTRMQE
METAR KMQE 260754Z AUTO 33011G18KT M08/M16 A2996 RMK AO1 SLP165
T10831161





000
SAUS41 KBOX 260655
MTRMQE
METAR KMQE 260654Z AUTO 31013G19KT M08/M16 A2998 RMK AO1 SLP172
T10831161





000
SAUS41 KBOX 260655
MTRMQE
METAR KMQE 260654Z AUTO 31013G19KT M08/M16 A2998 RMK AO1 SLP172
T10831161





000
SAUS41 KBOX 260555
MTRMQE
METAR KMQE 260554Z AUTO 31010KT M09/M17 A2997 RMK AO1 SLP170
T10891167 11039 21089 53013





000
SAUS41 KBOX 260555
MTRMQE
METAR KMQE 260554Z AUTO 31010KT M09/M17 A2997 RMK AO1 SLP170
T10891167 11039 21089 53013





000
SAUS41 KBOX 260455
MTRMQE
METAR KMQE 260454Z AUTO 31013KT M08/M17 A2994 RMK AO1 SLP157
T10831167 410061117





000
SAUS41 KBOX 260455
MTRMQE
METAR KMQE 260454Z AUTO 31013KT M08/M17 A2994 RMK AO1 SLP157
T10831167 410061117





000
SAUS41 KBOX 260255
MTRMQE
METAR KMQE 260254Z AUTO 29009G18KT M06/M16 A2994 RMK AO1 SLP157
T10611161 52041





000
SAUS41 KBOX 260255
MTRMQE
METAR KMQE 260254Z AUTO 29009G18KT M06/M16 A2994 RMK AO1 SLP157
T10611161 52041





000
SAUS41 KBOX 260155
MTRMQE
METAR KMQE 260154Z AUTO 28011KT M05/M16 A2990 RMK AO1 PK WND
28029/0110 SLP144 T10501161





000
SAUS41 KBOX 260055
MTRMQE
METAR KMQE 260054Z AUTO 29013G19KT M04/M14 A2985 RMK AO1 SLP131
T10391144





000
SAUS41 KBOX 260055
MTRMQE
METAR KMQE 260054Z AUTO 29013G19KT M04/M14 A2985 RMK AO1 SLP131
T10391144





000
SAUS41 KBOX 252355
MTRMQE
METAR KMQE 252354Z AUTO 29011KT M04/M13 A2981 RMK AO1 SLP117
T10441133 11006 21044 53030





000
SAUS41 KBOX 252255
MTRMQE
METAR KMQE 252254Z AUTO 28014G22KT M02/M14 A2977 RMK AO1 PK WND
29026/2243 SLP101 T10221139





000
SAUS41 KBOX 252155
MTRMQE
METAR KMQE 252154Z AUTO 27020G26KT M01/M14 A2974 RMK AO1 PK WND
26032/2127 SLP093 T10111139





000
SAUS41 KBOX 252055
MTRMQE
METAR KMQE 252054Z AUTO 27018G29KT M01/M13 A2972 RMK AO1 PK WND
29030/2024 SLP084 T10061133 53021





000
SAUS41 KBOX 251755
MTRMQE
METAR KMQE 251754Z AUTO 29008G20KT M01/M13 A2966 RMK AO1 SLP063
T10111128 11011 21111 58012





    US Dept of Commerce
    National Oceanic and Atmospheric Administration
    National Weather Service
    1325 East West Highway
    Silver Spring, MD 20910
    Page Author: NWS Internet Services Team
Disclaimer
Information Quality
Credits
Glossary
Privacy Policy
Freedom of Information Act (FOIA)
About Us
Career Opportunities